sensor_id;sensor_type;location;lat;lon;timestamp;pressure;altitude;pressure_sealevel;temperature;humidity
75775;BME280;64505;51.458;7.556;2023-03-23T00:00:27;98651.66;;;11.26;81.32
75775;BME280;64505;51.458;7.556;2023-03-23T00:05:07;98642.91;;;11.21;81.35
75775;BME280;64505;51.458;7.556;2023-03-23T00:07:08;98629.09;;;11.19;81.31
75775;BME280;64505;51.458;7.556;2023-03-23T00:09:09;98639.69;;;11.19;81.57
75775;BME280;64505;51.458;7.556;2023-03-23T00:11:14;98640.44;;;11.14;81.96
75775;BME280;64505;51.458;7.556;2023-03-23T00:13:14;98633.28;;;11.15;81.83
75775;BME280;64505;51.458;7.556;2023-03-23T00:15:19;98628.50;;;11.12;82.78
75775;BME280;64505;51.458;7.556;2023-03-23T00:17:25;98624.53;;;11.09;82.48
75775;BME280;64505;51.458;7.556;2023-03-23T00:19:25;98630.06;;;11.08;82.72
75775;BME280;64505;51.458;7.556;2023-03-23T00:21:29;98621.59;;;11.06;82.95
75775;BME280;64505;51.458;7.556;2023-03-23T00:23:35;98633.50;;;11.03;83.15
75775;BME280;64505;51.458;7.556;2023-03-23T00:25:36;98617.63;;;11.03;83.58
75775;BME280;64505;51.458;7.556;2023-03-23T00:27:36;98611.75;;;11.01;83.37
75775;BME280;64505;51.458;7.556;2023-03-23T00:29:37;98605.13;;;10.99;83.61
75775;BME280;64505;51.458;7.556;2023-03-23T00:31:37;98605.38;;;10.97;83.05
75775;BME280;64505;51.458;7.556;2023-03-23T00:33:38;98612.28;;;10.98;83.31
75775;BME280;64505;51.458;7.556;2023-03-23T00:35:40;98611.47;;;10.98;83.49
75775;BME280;64505;51.458;7.556;2023-03-23T00:37:41;98615.72;;;10.99;83.25
75775;BME280;64505;51.458;7.556;2023-03-23T00:39:41;98609.13;;;11.01;82.75
75775;BME280;64505;51.458;7.556;2023-03-23T00:41:45;98605.13;;;10.99;83.75
75775;BME280;64505;51.458;7.556;2023-03-23T00:43:46;98600.34;;;10.96;83.39
75775;BME280;64505;51.458;7.556;2023-03-23T00:45:48;98598.75;;;10.95;83.03
75775;BME280;64505;51.458;7.556;2023-03-23T00:47:52;98596.41;;;10.98;82.59
75775;BME280;64505;51.458;7.556;2023-03-23T00:49:53;98596.41;;;10.98;83.42
75775;BME280;64505;51.458;7.556;2023-03-23T00:51:57;98592.94;;;10.98;83.77
75775;BME280;64505;51.458;7.556;2023-03-23T00:53:58;98584.47;;;10.96;83.45
75775;BME280;64505;51.458;7.556;2023-03-23T00:55:58;98598.19;;;10.93;83.89
75775;BME280;64505;51.458;7.556;2023-03-23T00:57:59;98591.84;;;10.89;84.14
75775;BME280;64505;51.458;7.556;2023-03-23T00:59:59;98592.88;;;10.88;84.04
75775;BME280;64505;51.458;7.556;2023-03-23T01:02:00;98586.78;;;10.87;84.06
75775;BME280;64505;51.458;7.556;2023-03-23T01:04:01;98600.50;;;10.84;84.17
75775;BME280;64505;51.458;7.556;2023-03-23T01:06:05;98594.94;;;10.85;84.43
75775;BME280;64505;51.458;7.556;2023-03-23T01:08:08;98598.41;;;10.86;83.46
75775;BME280;64505;51.458;7.556;2023-03-23T01:10:11;98589.66;;;10.85;83.38
75775;BME280;64505;51.458;7.556;2023-03-23T01:12:17;98594.78;;;10.92;82.64
75775;BME280;64505;51.458;7.556;2023-03-23T01:14:19;98590.75;;;10.90;83.05
75775;BME280;64505;51.458;7.556;2023-03-23T01:16:20;98577.53;;;10.90;83.50
75775;BME280;64505;51.458;7.556;2023-03-23T01:18:21;98586.53;;;10.89;83.74
75775;BME280;64505;51.458;7.556;2023-03-23T01:20:22;98586.84;;;10.92;82.12
75775;BME280;64505;51.458;7.556;2023-03-23T01:22:22;98582.31;;;10.93;83.22
75775;BME280;64505;51.458;7.556;2023-03-23T01:24:23;98572.84;;;10.97;82.42
75775;BME280;64505;51.458;7.556;2023-03-23T01:26:26;98577.09;;;10.98;82.51
75775;BME280;64505;51.458;7.556;2023-03-23T01:28:27;98574.50;;;11.03;81.26
75775;BME280;64505;51.458;7.556;2023-03-23T01:30:27;98584.81;;;11.04;81.39
75775;BME280;64505;51.458;7.556;2023-03-23T01:32:28;98591.94;;;11.04;81.95
75775;BME280;64505;51.458;7.556;2023-03-23T01:34:28;98608.66;;;11.09;81.67
75775;BME280;64505;51.458;7.556;2023-03-23T01:36:29;98604.41;;;11.08;82.81
75775;BME280;64505;51.458;7.556;2023-03-23T01:38:33;98601.22;;;11.06;82.80
75775;BME280;64505;51.458;7.556;2023-03-23T01:40:34;98595.38;;;11.04;82.47
75775;BME280;64505;51.458;7.556;2023-03-23T01:42:35;98606.47;;;11.01;83.37
75775;BME280;64505;51.458;7.556;2023-03-23T01:46:36;98592.72;;;10.99;83.69
75775;BME280;64505;51.458;7.556;2023-03-23T01:48:37;98588.69;;;10.97;84.60
75775;BME280;64505;51.458;7.556;2023-03-23T01:51:09;98587.91;;;10.96;84.41
75775;BME280;64505;51.458;7.556;2023-03-23T01:53:12;98593.41;;;10.90;85.95
75775;BME280;64505;51.458;7.556;2023-03-23T01:55:13;98585.47;;;10.90;86.03
75775;BME280;64505;51.458;7.556;2023-03-23T01:57:15;98590.47;;;10.86;86.05
75775;BME280;64505;51.458;7.556;2023-03-23T01:59:17;98588.63;;;10.86;86.50
75775;BME280;64505;51.458;7.556;2023-03-23T02:01:17;98586.50;;;10.83;87.26
75775;BME280;64505;51.458;7.556;2023-03-23T02:03:19;98587.28;;;10.84;86.59
75775;BME280;64505;51.458;7.556;2023-03-23T02:05:24;98594.13;;;10.80;86.81
75775;BME280;64505;51.458;7.556;2023-03-23T02:07:27;98587.28;;;10.84;86.73
75775;BME280;64505;51.458;7.556;2023-03-23T02:09:27;98594.94;;;10.80;86.79
75775;BME280;64505;51.458;7.556;2023-03-23T02:11:27;98579.06;;;10.80;87.82
75775;BME280;64505;51.458;7.556;2023-03-23T02:13:28;98601.25;;;10.79;88.66
75775;BME280;64505;51.458;7.556;2023-03-23T02:15:37;98599.13;;;10.76;88.44
75775;BME280;64505;51.458;7.556;2023-03-23T02:22:31;98555.94;;;10.71;89.57
75775;BME280;64505;51.458;7.556;2023-03-23T02:26:58;98548.00;;;10.66;88.73
75775;BME280;64505;51.458;7.556;2023-03-23T02:29:34;98545.59;;;10.64;89.00
75775;BME280;64505;51.458;7.556;2023-03-23T02:31:46;98546.16;;;10.66;88.15
75775;BME280;64505;51.458;7.556;2023-03-23T02:34:08;98548.00;;;10.66;88.52
75775;BME280;64505;51.458;7.556;2023-03-23T02:36:25;98538.16;;;10.61;88.36
75775;BME280;64505;51.458;7.556;2023-03-23T02:38:33;98529.44;;;10.61;88.57
75775;BME280;64505;51.458;7.556;2023-03-23T02:40:40;98517.03;;;10.61;88.38
75775;BME280;64505;51.458;7.556;2023-03-23T02:42:43;98519.13;;;10.59;88.55
75775;BME280;64505;51.458;7.556;2023-03-23T02:44:46;98512.75;;;10.55;88.60
75775;BME280;64505;51.458;7.556;2023-03-23T02:46:48;98519.38;;;10.58;88.58
75775;BME280;64505;51.458;7.556;2023-03-23T02:48:50;98521.47;;;10.56;87.66
75775;BME280;64505;51.458;7.556;2023-03-23T02:50:53;98509.00;;;10.51;88.20
75775;BME280;64505;51.458;7.556;2023-03-23T02:52:55;98506.91;;;10.53;89.32
75775;BME280;64505;51.458;7.556;2023-03-23T02:54:59;98509.81;;;10.52;88.84
75775;BME280;64505;51.458;7.556;2023-03-23T02:57:00;98515.34;;;10.50;88.80
75775;BME280;64505;51.458;7.556;2023-03-23T02:59:01;98501.59;;;10.48;88.31
75775;BME280;64505;51.458;7.556;2023-03-23T03:01:45;98492.84;;;10.48;88.73
75775;BME280;64505;51.458;7.556;2023-03-23T03:03:36;98498.13;;;10.48;88.44
75775;BME280;64505;51.458;7.556;2023-03-23T03:07:51;98491.53;;;10.45;88.13
75775;BME280;64505;51.458;7.556;2023-03-23T03:10:02;98488.31;;;10.43;88.92
75775;BME280;64505;51.458;7.556;2023-03-23T03:12:09;98482.50;;;10.41;88.93
75775;BME280;64505;51.458;7.556;2023-03-23T03:14:54;98484.88;;;10.43;87.88
75775;BME280;64505;51.458;7.556;2023-03-23T03:17:17;98483.00;;;10.38;88.61
75775;BME280;64505;51.458;7.556;2023-03-23T03:19:26;98481.13;;;10.38;89.06
75775;BME280;64505;51.458;7.556;2023-03-23T03:21:31;98482.19;;;10.38;88.48
75775;BME280;64505;51.458;7.556;2023-03-23T03:23:34;98485.09;;;10.36;88.20
75775;BME280;64505;51.458;7.556;2023-03-23T03:25:36;98481.63;;;10.35;88.13
75775;BME280;64505;51.458;7.556;2023-03-23T03:27:37;98490.63;;;10.34;88.85
75775;BME280;64505;51.458;7.556;2023-03-23T03:29:41;98485.34;;;10.34;88.53
75775;BME280;64505;51.458;7.556;2023-03-23T03:31:42;98487.19;;;10.34;88.83
75775;BME280;64505;51.458;7.556;2023-03-23T03:33:45;98485.59;;;10.33;88.89
75775;BME280;64505;51.458;7.556;2023-03-23T03:35:47;98481.34;;;10.32;89.60
75775;BME280;64505;51.458;7.556;2023-03-23T03:37:48;98478.97;;;10.30;89.04
75775;BME280;64505;51.458;7.556;2023-03-23T03:39:50;98496.97;;;10.33;88.07
75775;BME280;64505;51.458;7.556;2023-03-23T03:41:51;98480.31;;;10.33;88.16
75775;BME280;64505;51.458;7.556;2023-03-23T03:43:51;98487.72;;;10.36;87.96
75775;BME280;64505;51.458;7.556;2023-03-23T03:45:52;98484.78;;;10.32;88.39
75775;BME280;64505;51.458;7.556;2023-03-23T03:47:52;98483.97;;;10.32;87.75
75775;BME280;64505;51.458;7.556;2023-03-23T03:49:52;98488.53;;;10.36;87.16
75775;BME280;64505;51.458;7.556;2023-03-23T03:51:53;98476.63;;;10.34;87.95
75775;BME280;64505;51.458;7.556;2023-03-23T03:53:53;98475.81;;;10.33;87.12
75775;BME280;64505;51.458;7.556;2023-03-23T03:55:54;98485.88;;;10.36;86.79
75775;BME280;64505;51.458;7.556;2023-03-23T03:58:00;98489.84;;;10.39;85.73
75775;BME280;64505;51.458;7.556;2023-03-23T04:00:00;98502.03;;;10.40;86.62
75775;BME280;64505;51.458;7.556;2023-03-23T04:02:00;98495.94;;;10.40;86.34
75775;BME280;64505;51.458;7.556;2023-03-23T04:04:01;98494.63;;;10.37;86.40
75775;BME280;64505;51.458;7.556;2023-03-23T04:06:02;98490.13;;;10.38;86.70
75775;BME280;64505;51.458;7.556;2023-03-23T04:08:03;98498.34;;;10.41;86.27
75775;BME280;64505;51.458;7.556;2023-03-23T04:10:05;98494.34;;;10.38;86.73
75775;BME280;64505;51.458;7.556;2023-03-23T04:12:07;98498.84;;;10.38;87.04
75775;BME280;64505;51.458;7.556;2023-03-23T04:14:07;98494.63;;;10.42;86.17
75775;BME280;64505;51.458;7.556;2023-03-23T04:16:08;98494.63;;;10.42;85.98
75775;BME280;64505;51.458;7.556;2023-03-23T04:18:08;98490.66;;;10.40;86.43
75775;BME280;64505;51.458;7.556;2023-03-23T04:20:10;98485.66;;;10.43;85.35
75775;BME280;64505;51.458;7.556;2023-03-23T04:22:17;98495.72;;;10.41;85.29
75775;BME280;64505;51.458;7.556;2023-03-23T04:24:18;98495.16;;;10.39;86.06
75775;BME280;64505;51.458;7.556;2023-03-23T04:26:21;98498.59;;;10.40;85.73
75775;BME280;64505;51.458;7.556;2023-03-23T04:28:22;98500.44;;;10.39;85.66
75775;BME280;64505;51.458;7.556;2023-03-23T04:30:24;98497.56;;;10.46;85.94
75775;BME280;64505;51.458;7.556;2023-03-23T04:32:25;98501.00;;;10.41;86.56
75775;BME280;64505;51.458;7.556;2023-03-23T04:34:29;98494.16;;;10.45;85.90
75775;BME280;64505;51.458;7.556;2023-03-23T04:36:32;98491.75;;;10.44;85.64
75775;BME280;64505;51.458;7.556;2023-03-23T04:38:35;98490.97;;;10.43;85.61
75775;BME280;64505;51.458;7.556;2023-03-23T04:40:37;98489.66;;;10.46;84.42
75775;BME280;64505;51.458;7.556;2023-03-23T04:42:38;98497.56;;;10.46;84.77
75775;BME280;64505;51.458;7.556;2023-03-23T04:44:39;98488.88;;;10.45;85.00
75775;BME280;64505;51.458;7.556;2023-03-23T04:46:39;98484.06;;;10.42;85.86
75775;BME280;64505;51.458;7.556;2023-03-23T04:48:40;98482.50;;;10.41;85.41
75775;BME280;64505;51.458;7.556;2023-03-23T04:50:41;98490.16;;;10.43;85.00
75775;BME280;64505;51.458;7.556;2023-03-23T04:52:41;98489.63;;;10.41;85.36
75775;BME280;64505;51.458;7.556;2023-03-23T04:54:45;98492.25;;;10.41;85.18
75775;BME280;64505;51.458;7.556;2023-03-23T04:56:45;98497.28;;;10.42;85.51
75775;BME280;64505;51.458;7.556;2023-03-23T04:58:46;98496.00;;;10.45;84.70
75775;BME280;64505;51.458;7.556;2023-03-23T05:00:46;98492.56;;;10.44;85.72
75775;BME280;64505;51.458;7.556;2023-03-23T05:02:49;98483.31;;;10.42;84.47
75775;BME280;64505;51.458;7.556;2023-03-23T05:04:52;98488.59;;;10.42;85.03
75775;BME280;64505;51.458;7.556;2023-03-23T05:06:53;98513.69;;;10.44;84.22
75775;BME280;64505;51.458;7.556;2023-03-23T05:08:53;98497.34;;;10.47;84.87
75775;BME280;64505;51.458;7.556;2023-03-23T05:10:56;98498.38;;;10.46;84.78
75775;BME280;64505;51.458;7.556;2023-03-23T05:12:57;98496.00;;;10.45;85.25
75775;BME280;64505;51.458;7.556;2023-03-23T05:14:57;98498.09;;;10.43;85.38
75775;BME280;64505;51.458;7.556;2023-03-23T05:16:58;98496.50;;;10.42;85.23
75775;BME280;64505;51.458;7.556;2023-03-23T05:18:58;98498.34;;;10.41;85.21
75775;BME280;64505;51.458;7.556;2023-03-23T05:21:00;98500.72;;;10.43;84.90
75775;BME280;64505;51.458;7.556;2023-03-23T05:23:00;98507.31;;;10.40;85.68
75775;BME280;64505;51.458;7.556;2023-03-23T05:25:01;98508.94;;;10.41;84.39
75775;BME280;64505;51.458;7.556;2023-03-23T05:27:05;98516.34;;;10.44;85.17
75775;BME280;64505;51.458;7.556;2023-03-23T05:29:07;98508.94;;;10.46;84.70
75775;BME280;64505;51.458;7.556;2023-03-23T05:31:08;98509.75;;;10.47;84.75
75775;BME280;64505;51.458;7.556;2023-03-23T05:33:08;98515.59;;;10.49;84.50
75775;BME280;64505;51.458;7.556;2023-03-23T05:35:09;98518.25;;;10.49;84.21
75775;BME280;64505;51.458;7.556;2023-03-23T05:37:10;98517.16;;;10.50;84.20
75775;BME280;64505;51.458;7.556;2023-03-23T05:39:12;98519.31;;;10.53;84.46
75775;BME280;64505;51.458;7.556;2023-03-23T05:41:14;98516.94;;;10.51;84.43
75775;BME280;64505;51.458;7.556;2023-03-23T05:43:14;98515.09;;;10.52;85.10
75775;BME280;64505;51.458;7.556;2023-03-23T05:45:14;98527.50;;;10.51;84.70
75775;BME280;64505;51.458;7.556;2023-03-23T05:47:16;98522.53;;;10.55;84.02
75775;BME280;64505;51.458;7.556;2023-03-23T05:49:17;98519.94;;;10.60;83.94
75775;BME280;64505;51.458;7.556;2023-03-23T05:51:17;98521.78;;;10.59;84.64
75775;BME280;64505;51.458;7.556;2023-03-23T05:53:18;98534.72;;;10.61;83.67
75775;BME280;64505;51.458;7.556;2023-03-23T05:55:19;98526.03;;;10.65;84.10
75775;BME280;64505;51.458;7.556;2023-03-23T05:57:19;98532.38;;;10.64;84.28
75775;BME280;64505;51.458;7.556;2023-03-23T05:59:23;98536.31;;;10.62;84.69
75775;BME280;64505;51.458;7.556;2023-03-23T06:01:24;98526.28;;;10.64;83.73
75775;BME280;64505;51.458;7.556;2023-03-23T06:03:25;98525.53;;;10.68;83.12
75775;BME280;64505;51.458;7.556;2023-03-23T06:05:25;98525.03;;;10.71;82.80
75775;BME280;64505;51.458;7.556;2023-03-23T06:07:26;98522.94;;;10.73;82.76
75775;BME280;64505;51.458;7.556;2023-03-23T06:09:26;98532.75;;;10.78;82.23
75775;BME280;64505;51.458;7.556;2023-03-23T06:11:27;98536.19;;;10.78;82.18
75775;BME280;64505;51.458;7.556;2023-03-23T06:13:27;98534.34;;;10.79;82.83
75775;BME280;64505;51.458;7.556;2023-03-23T06:15:28;98533.06;;;10.81;82.49
75775;BME280;64505;51.458;7.556;2023-03-23T06:17:31;98541.28;;;10.85;82.11
75775;BME280;64505;51.458;7.556;2023-03-23T06:19:32;98536.00;;;10.85;82.92
75775;BME280;64505;51.458;7.556;2023-03-23T06:21:32;98541.59;;;10.89;82.73
75775;BME280;64505;51.458;7.556;2023-03-23T06:23:33;98549.00;;;10.92;82.09
75775;BME280;64505;51.458;7.556;2023-03-23T06:25:34;98541.06;;;10.92;82.14
75775;BME280;64505;51.458;7.556;2023-03-23T06:27:35;98546.09;;;10.93;82.22
75775;BME280;64505;51.458;7.556;2023-03-23T06:29:36;98548.75;;;10.93;82.37
75775;BME280;64505;51.458;7.556;2023-03-23T06:31:39;98549.03;;;10.97;82.10
75775;BME280;64505;51.458;7.556;2023-03-23T06:33:40;98548.28;;;11.01;82.59
75775;BME280;64505;51.458;7.556;2023-03-23T06:35:41;98555.69;;;11.04;82.35
75775;BME280;64505;51.458;7.556;2023-03-23T06:37:41;98553.09;;;11.09;82.04
75775;BME280;64505;51.458;7.556;2023-03-23T06:39:42;98553.41;;;11.13;80.93
75775;BME280;64505;51.458;7.556;2023-03-23T06:41:42;98561.91;;;11.20;80.98
75775;BME280;64505;51.458;7.556;2023-03-23T06:43:43;98558.75;;;11.23;80.73
75775;BME280;64505;51.458;7.556;2023-03-23T06:45:44;98566.44;;;11.24;80.94
75775;BME280;64505;51.458;7.556;2023-03-23T06:47:44;98565.94;;;11.27;81.28
75775;BME280;64505;51.458;7.556;2023-03-23T06:49:45;98560.66;;;11.32;80.55
75775;BME280;64505;51.458;7.556;2023-03-23T06:51:45;98565.19;;;11.37;80.21
75775;BME280;64505;51.458;7.556;2023-03-23T06:53:46;98561.78;;;11.42;80.04
75775;BME280;64505;51.458;7.556;2023-03-23T06:55:46;98564.19;;;11.48;79.06
75775;BME280;64505;51.458;7.556;2023-03-23T06:57:47;98562.13;;;11.50;80.03
75775;BME280;64505;51.458;7.556;2023-03-23T06:59:47;98580.66;;;11.50;79.76
75775;BME280;64505;51.458;7.556;2023-03-23T07:01:48;98569.25;;;11.55;79.28
75775;BME280;64505;51.458;7.556;2023-03-23T07:03:48;98564.53;;;11.57;79.05
75775;BME280;64505;51.458;7.556;2023-03-23T07:05:49;98563.72;;;11.61;78.72
75775;BME280;64505;51.458;7.556;2023-03-23T07:07:50;98569.31;;;11.65;78.57
75775;BME280;64505;51.458;7.556;2023-03-23T07:09:51;98557.75;;;11.71;78.37
75775;BME280;64505;51.458;7.556;2023-03-23T07:11:51;98556.41;;;11.73;78.89
75775;BME280;64505;51.458;7.556;2023-03-23T07:13:51;98567.06;;;11.78;77.77
75775;BME280;64505;51.458;7.556;2023-03-23T07:15:52;98564.41;;;11.83;77.52
75775;BME280;64505;51.458;7.556;2023-03-23T07:17:52;98560.19;;;11.82;77.71
75775;BME280;64505;51.458;7.556;2023-03-23T07:19:54;98568.66;;;11.84;76.37
75775;BME280;64505;51.458;7.556;2023-03-23T07:21:54;98576.34;;;11.86;77.19
75775;BME280;64505;51.458;7.556;2023-03-23T07:23:57;98566.25;;;11.83;76.57
75775;BME280;64505;51.458;7.556;2023-03-23T07:25:57;98561.22;;;11.87;76.69
75775;BME280;64505;51.458;7.556;2023-03-23T07:27:58;98573.19;;;11.89;76.89
75775;BME280;64505;51.458;7.556;2023-03-23T07:30:00;98559.66;;;11.91;77.24
75775;BME280;64505;51.458;7.556;2023-03-23T07:32:00;98566.31;;;11.93;76.21
75775;BME280;64505;51.458;7.556;2023-03-23T07:34:02;98567.41;;;11.97;76.51
75775;BME280;64505;51.458;7.556;2023-03-23T07:36:03;98567.41;;;12.02;77.04
75775;BME280;64505;51.458;7.556;2023-03-23T07:38:05;98576.69;;;12.05;76.97
75775;BME280;64505;51.458;7.556;2023-03-23T07:40:07;98571.41;;;12.10;76.16
75775;BME280;64505;51.458;7.556;2023-03-23T07:42:14;98570.34;;;12.16;75.58
75775;BME280;64505;51.458;7.556;2023-03-23T07:44:15;98564.56;;;12.19;74.56
75775;BME280;64505;51.458;7.556;2023-03-23T07:46:16;98570.38;;;12.21;74.68
75775;BME280;64505;51.458;7.556;2023-03-23T07:48:16;98577.00;;;12.23;74.97
75775;BME280;64505;51.458;7.556;2023-03-23T07:50:17;98570.66;;;12.24;74.81
75775;BME280;64505;51.458;7.556;2023-03-23T07:52:21;98568.81;;;12.30;74.78
75775;BME280;64505;51.458;7.556;2023-03-23T07:54:21;98572.78;;;12.27;74.13
75775;BME280;64505;51.458;7.556;2023-03-23T07:56:22;98570.41;;;12.31;74.58
75775;BME280;64505;51.458;7.556;2023-03-23T07:58:23;98571.72;;;12.33;74.27
75775;BME280;64505;51.458;7.556;2023-03-23T08:00:24;98581.03;;;12.36;74.03
75775;BME280;64505;51.458;7.556;2023-03-23T08:02:24;98582.09;;;12.40;73.54
75775;BME280;64505;51.458;7.556;2023-03-23T08:04:25;98586.34;;;12.46;73.87
75775;BME280;64505;51.458;7.556;2023-03-23T08:06:27;98581.31;;;12.50;73.76
75775;BME280;64505;51.458;7.556;2023-03-23T08:08:27;98585.81;;;12.49;72.92
75775;BME280;64505;51.458;7.556;2023-03-23T08:10:28;98572.84;;;12.53;73.67
75775;BME280;64505;51.458;7.556;2023-03-23T08:12:28;98579.47;;;12.55;72.74
75775;BME280;64505;51.458;7.556;2023-03-23T08:14:29;98577.38;;;12.57;72.54
75775;BME280;64505;51.458;7.556;2023-03-23T08:16:29;98582.94;;;12.61;72.34
75775;BME280;64505;51.458;7.556;2023-03-23T08:18:30;98595.66;;;12.64;72.28
75775;BME280;64505;51.458;7.556;2023-03-23T08:20:31;98596.22;;;12.66;72.75
75775;BME280;64505;51.458;7.556;2023-03-23T08:22:32;98599.66;;;12.66;72.66
75775;BME280;64505;51.458;7.556;2023-03-23T08:24:33;98594.63;;;12.75;71.92
75775;BME280;64505;51.458;7.556;2023-03-23T08:26:34;98598.34;;;12.74;72.09
75775;BME280;64505;51.458;7.556;2023-03-23T08:28:35;98594.09;;;12.78;71.91
75775;BME280;64505;51.458;7.556;2023-03-23T08:30:38;98595.72;;;12.84;72.02
75775;BME280;64505;51.458;7.556;2023-03-23T08:32:40;98591.19;;;12.84;72.26
75775;BME280;64505;51.458;7.556;2023-03-23T08:34:40;98597.31;;;12.90;71.58
75775;BME280;64505;51.458;7.556;2023-03-23T08:36:42;98596.78;;;12.98;71.88
75775;BME280;64505;51.458;7.556;2023-03-23T08:38:44;98589.88;;;12.97;71.19
75775;BME280;64505;51.458;7.556;2023-03-23T08:40:44;98600.75;;;13.01;71.38
75775;BME280;64505;51.458;7.556;2023-03-23T08:42:47;98595.47;;;13.06;70.58
75775;BME280;64505;51.458;7.556;2023-03-23T08:44:48;98589.63;;;13.14;70.22
75775;BME280;64505;51.458;7.556;2023-03-23T08:46:48;98599.72;;;13.17;69.73
75775;BME280;64505;51.458;7.556;2023-03-23T08:48:49;98596.53;;;13.25;69.43
75775;BME280;64505;51.458;7.556;2023-03-23T08:50:51;98594.94;;;13.34;68.87
75775;BME280;64505;51.458;7.556;2023-03-23T08:52:53;98594.13;;;13.39;69.72
75775;BME280;64505;51.458;7.556;2023-03-23T08:54:54;98600.75;;;13.36;68.94
75775;BME280;64505;51.458;7.556;2023-03-23T08:56:54;98604.22;;;13.42;69.27
75775;BME280;64505;51.458;7.556;2023-03-23T08:58:55;98596.25;;;13.37;68.96
75775;BME280;64505;51.458;7.556;2023-03-23T09:00:55;98593.34;;;13.38;68.64
75775;BME280;64505;51.458;7.556;2023-03-23T09:02:56;98600.78;;;13.31;68.70
75775;BME280;64505;51.458;7.556;2023-03-23T09:04:56;98613.50;;;13.29;69.40
75775;BME280;64505;51.458;7.556;2023-03-23T09:06:57;98622.28;;;13.19;68.99
75775;BME280;64505;51.458;7.556;2023-03-23T09:08:58;98629.19;;;13.30;70.17
75775;BME280;64505;51.458;7.556;2023-03-23T09:11:08;98627.56;;;13.50;68.45
75775;BME280;64505;51.458;7.556;2023-03-23T09:13:09;98619.06;;;13.58;68.70
75775;BME280;64505;51.458;7.556;2023-03-23T09:15:13;98633.41;;;13.57;68.55
75775;BME280;64505;51.458;7.556;2023-03-23T09:17:14;98625.97;;;13.54;68.37
75775;BME280;64505;51.458;7.556;2023-03-23T09:19:15;98631.56;;;13.52;67.65
75775;BME280;64505;51.458;7.556;2023-03-23T09:21:15;98628.38;;;13.55;67.52
75775;BME280;64505;51.458;7.556;2023-03-23T09:23:16;98630.22;;;13.60;67.31
75775;BME280;64505;51.458;7.556;2023-03-23T09:25:18;98635.25;;;13.66;67.48
75775;BME280;64505;51.458;7.556;2023-03-23T09:27:21;98641.63;;;13.65;67.97
75775;BME280;64505;51.458;7.556;2023-03-23T09:29:47;98653.84;;;13.66;67.87
75775;BME280;64505;51.458;7.556;2023-03-23T09:31:48;98637.38;;;13.74;67.96
75775;BME280;64505;51.458;7.556;2023-03-23T09:33:49;98639.78;;;13.66;67.33
75775;BME280;64505;51.458;7.556;2023-03-23T09:35:52;98643.75;;;13.73;67.76
75775;BME280;64505;51.458;7.556;2023-03-23T09:37:53;98639.50;;;13.72;67.11
75775;BME280;64505;51.458;7.556;2023-03-23T09:39:57;98634.97;;;13.73;67.39
75775;BME280;64505;51.458;7.556;2023-03-23T09:42:01;98642.94;;;13.68;67.28
75775;BME280;64505;51.458;7.556;2023-03-23T09:48:55;98638.16;;;13.80;66.61
75775;BME280;64505;51.458;7.556;2023-03-23T09:51:17;98639.22;;;13.79;67.43
75775;BME280;64505;51.458;7.556;2023-03-23T09:53:28;98641.88;;;13.79;66.88
75775;BME280;64505;51.458;7.556;2023-03-23T09:55:35;98650.59;;;13.90;67.16
75775;BME280;64505;51.458;7.556;2023-03-23T09:57:43;98649.00;;;13.94;67.62
75775;BME280;64505;51.458;7.556;2023-03-23T09:59:54;98653.53;;;13.93;67.33
75775;BME280;64505;51.458;7.556;2023-03-23T10:02:28;98663.34;;;13.93;67.31
75775;BME280;64505;51.458;7.556;2023-03-23T10:04:41;98647.41;;;13.93;66.10
75775;BME280;64505;51.458;7.556;2023-03-23T10:06:45;98651.41;;;13.95;66.47
75775;BME280;64505;51.458;7.556;2023-03-23T10:08:52;98644.19;;;14.01;66.30
75775;BME280;64505;51.458;7.556;2023-03-23T10:13:06;98640.94;;;14.19;65.41
75775;BME280;64505;51.458;7.556;2023-03-23T10:15:17;98634.78;;;14.39;65.52
75775;BME280;64505;51.458;7.556;2023-03-23T10:17:33;98636.34;;;14.45;64.34
75775;BME280;64505;51.458;7.556;2023-03-23T10:19:48;98641.72;;;14.40;64.63
75775;BME280;64505;51.458;7.556;2023-03-23T10:21:56;98628.38;;;14.45;65.17
75775;BME280;64505;51.458;7.556;2023-03-23T10:24:04;98640.88;;;14.44;64.88
75775;BME280;64505;51.458;7.556;2023-03-23T10:28:34;98650.75;;;14.39;65.24
75775;BME280;64505;51.458;7.556;2023-03-23T10:30:41;98654.22;;;14.39;64.31
75775;BME280;64505;51.458;7.556;2023-03-23T10:32:52;98646.44;;;14.48;64.00
75775;BME280;64505;51.458;7.556;2023-03-23T10:34:57;98651.53;;;14.29;63.01
75775;BME280;64505;51.458;7.556;2023-03-23T10:37:15;98658.47;;;14.30;62.69
75775;BME280;64505;51.458;7.556;2023-03-23T10:39:20;98666.97;;;14.27;63.66
75775;BME280;64505;51.458;7.556;2023-03-23T10:41:24;98653.97;;;14.36;62.97
75775;BME280;64505;51.458;7.556;2023-03-23T10:43:24;98662.44;;;14.32;62.47
75775;BME280;64505;51.458;7.556;2023-03-23T10:45:28;98667.84;;;14.12;62.82
75775;BME280;64505;51.458;7.556;2023-03-23T10:47:32;98678.00;;;13.85;65.13
75775;BME280;64505;51.458;7.556;2023-03-23T10:49:42;98676.97;;;13.46;64.72
75775;BME280;64505;51.458;7.556;2023-03-23T10:52:00;98684.94;;;13.46;66.33
75775;BME280;64505;51.458;7.556;2023-03-23T10:54:04;98703.53;;;13.41;67.35
75775;BME280;64505;51.458;7.556;2023-03-23T10:56:21;98730.34;;;13.39;69.95
75775;BME280;64505;51.458;7.556;2023-03-23T10:58:28;98717.56;;;13.21;72.80
75775;BME280;64505;51.458;7.556;2023-03-23T11:00:30;98723.00;;;12.74;73.86
75775;BME280;64505;51.458;7.556;2023-03-23T11:02:37;98728.84;;;12.71;75.16
75775;BME280;64505;51.458;7.556;2023-03-23T11:04:38;98763.84;;;12.68;75.79
75775;BME280;64505;51.458;7.556;2023-03-23T11:06:44;98724.47;;;12.40;75.48
75775;BME280;64505;51.458;7.556;2023-03-23T11:08:52;98731.25;;;12.20;75.10
75775;BME280;64505;51.458;7.556;2023-03-23T11:11:08;98738.69;;;12.23;75.42
75775;BME280;64505;51.458;7.556;2023-03-23T11:13:14;98745.25;;;12.63;74.87
75775;BME280;64505;51.458;7.556;2023-03-23T11:15:34;98729.09;;;12.69;75.77